sensor_id;sensor_type;location;lat;lon;timestamp;P1;durP1;ratioP1;P2;durP2;ratioP2
22113;SDS011;11223;49.968;9.062;2022-08-14T00:00:05;7.28;;;6.88;;
22113;SDS011;11223;49.968;9.062;2022-08-14T00:02:38;7.53;;;7.03;;
22113;SDS011;11223;49.968;9.062;2022-08-14T00:05:06;7.78;;;7.28;;
22113;SDS011;11223;49.968;9.062;2022-08-14T00:07:33;8.50;;;8.00;;
22113;SDS011;11223;49.968;9.062;2022-08-14T00:09:59;8.65;;;8.00;;
22113;SDS011;11223;49.968;9.062;2022-08-14T00:12:30;8.60;;;7.97;;
22113;SDS011;11223;49.968;9.062;2022-08-14T00:14:57;8.98;;;8.30;;
22113;SDS011;11223;49.968;9.062;2022-08-14T00:17:22;8.10;;;7.60;;
22113;SDS011;11223;49.968;9.062;2022-08-14T00:19:48;8.30;;;7.73;;
22113;SDS011;11223;49.968;9.062;2022-08-14T00:22:14;7.20;;;6.80;;
22113;SDS011;11223;49.968;9.062;2022-08-14T00:24:43;8.00;;;7.50;;
22113;SDS011;11223;49.968;9.062;2022-08-14T00:27:09;8.00;;;7.53;;
22113;SDS011;11223;49.968;9.062;2022-08-14T00:29:35;7.63;;;7.13;;
22113;SDS011;11223;49.968;9.062;2022-08-14T00:32:01;7.60;;;7.20;;
22113;SDS011;11223;49.968;9.062;2022-08-14T00:34:27;7.40;;;7.00;;
22113;SDS011;11223;49.968;9.062;2022-08-14T00:36:52;7.97;;;7.57;;
22113;SDS011;11223;49.968;9.062;2022-08-14T00:39:18;8.27;;;7.67;;
22113;SDS011;11223;49.968;9.062;2022-08-14T00:41:44;8.07;;;7.60;;
22113;SDS011;11223;49.968;9.062;2022-08-14T00:44:11;7.70;;;7.30;;
22113;SDS011;11223;49.968;9.062;2022-08-14T00:46:37;8.82;;;8.32;;
22113;SDS011;11223;49.968;9.062;2022-08-14T00:49:04;9.60;;;8.75;;
22113;SDS011;11223;49.968;9.062;2022-08-14T00:51:32;9.88;;;9.27;;
22113;SDS011;11223;49.968;9.062;2022-08-14T00:53:58;9.88;;;9.30;;
22113;SDS011;11223;49.968;9.062;2022-08-14T00:56:26;9.82;;;9.05;;
22113;SDS011;11223;49.968;9.062;2022-08-14T00:58:52;12.38;;;11.57;;
22113;SDS011;11223;49.968;9.062;2022-08-14T01:01:19;10.60;;;9.93;;
22113;SDS011;11223;49.968;9.062;2022-08-14T01:03:45;11.53;;;10.83;;
22113;SDS011;11223;49.968;9.062;2022-08-14T01:06:11;11.52;;;10.73;;
22113;SDS011;11223;49.968;9.062;2022-08-14T01:08:41;11.75;;;10.95;;
22113;SDS011;11223;49.968;9.062;2022-08-14T01:11:08;11.18;;;10.45;;
22113;SDS011;11223;49.968;9.062;2022-08-14T01:13:37;10.40;;;9.80;;
22113;SDS011;11223;49.968;9.062;2022-08-14T01:16:05;9.55;;;8.95;;
22113;SDS011;11223;49.968;9.062;2022-08-14T01:18:32;9.60;;;9.00;;
22113;SDS011;11223;49.968;9.062;2022-08-14T01:21:50;10.95;;;10.00;;
22113;SDS011;11223;49.968;9.062;2022-08-14T01:24:10;10.57;;;9.98;;
22113;SDS011;11223;49.968;9.062;2022-08-14T01:26:39;10.95;;;10.35;;
22113;SDS011;11223;49.968;9.062;2022-08-14T01:29:06;11.63;;;10.82;;
22113;SDS011;11223;49.968;9.062;2022-08-14T01:31:33;11.00;;;10.03;;
22113;SDS011;11223;49.968;9.062;2022-08-14T01:34:13;11.48;;;10.73;;
22113;SDS011;11223;49.968;9.062;2022-08-14T01:36:39;12.20;;;11.30;;
22113;SDS011;11223;49.968;9.062;2022-08-14T01:39:06;10.87;;;10.27;;
22113;SDS011;11223;49.968;9.062;2022-08-14T01:41:37;11.02;;;10.43;;
22113;SDS011;11223;49.968;9.062;2022-08-14T01:44:05;11.13;;;10.52;;
22113;SDS011;11223;49.968;9.062;2022-08-14T01:46:37;10.93;;;10.32;;
22113;SDS011;11223;49.968;9.062;2022-08-14T01:49:06;11.43;;;10.73;;
22113;SDS011;11223;49.968;9.062;2022-08-14T01:51:33;11.20;;;10.50;;
22113;SDS011;11223;49.968;9.062;2022-08-14T01:54:01;11.85;;;11.05;;
22113;SDS011;11223;49.968;9.062;2022-08-14T01:56:44;11.00;;;10.30;;
22113;SDS011;11223;49.968;9.062;2022-08-14T02:01:43;11.93;;;10.95;;
22113;SDS011;11223;49.968;9.062;2022-08-14T02:04:09;12.57;;;11.67;;
22113;SDS011;11223;49.968;9.062;2022-08-14T02:06:35;11.67;;;10.97;;
22113;SDS011;11223;49.968;9.062;2022-08-14T02:09:05;11.13;;;10.52;;
22113;SDS011;11223;49.968;9.062;2022-08-14T02:11:31;10.95;;;10.25;;
22113;SDS011;11223;49.968;9.062;2022-08-14T02:14:01;12.68;;;11.95;;
22113;SDS011;11223;49.968;9.062;2022-08-14T02:16:36;11.73;;;10.98;;
22113;SDS011;11223;49.968;9.062;2022-08-14T02:19:07;13.15;;;12.35;;
22113;SDS011;11223;49.968;9.062;2022-08-14T02:21:35;11.80;;;10.95;;
22113;SDS011;11223;49.968;9.062;2022-08-14T02:24:02;12.40;;;11.50;;
22113;SDS011;11223;49.968;9.062;2022-08-14T02:26:35;12.80;;;12.00;;
22113;SDS011;11223;49.968;9.062;2022-08-14T02:29:07;13.07;;;12.27;;
22113;SDS011;11223;49.968;9.062;2022-08-14T02:31:36;12.95;;;12.10;;
22113;SDS011;11223;49.968;9.062;2022-08-14T02:34:05;12.90;;;12.10;;
22113;SDS011;11223;49.968;9.062;2022-08-14T02:36:36;13.18;;;12.35;;
22113;SDS011;11223;49.968;9.062;2022-08-14T02:39:04;14.23;;;13.25;;
22113;SDS011;11223;49.968;9.062;2022-08-14T02:41:31;12.30;;;11.60;;
22113;SDS011;11223;49.968;9.062;2022-08-14T02:44:00;13.55;;;12.85;;
22113;SDS011;11223;49.968;9.062;2022-08-14T02:46:29;12.23;;;11.43;;
22113;SDS011;11223;49.968;9.062;2022-08-14T02:48:55;12.53;;;11.73;;
22113;SDS011;11223;49.968;9.062;2022-08-14T02:51:22;13.65;;;12.75;;
22113;SDS011;11223;49.968;9.062;2022-08-14T02:53:47;14.00;;;13.20;;
22113;SDS011;11223;49.968;9.062;2022-08-14T02:56:14;13.55;;;12.75;;
22113;SDS011;11223;49.968;9.062;2022-08-14T02:58:48;13.82;;;12.88;;
22113;SDS011;11223;49.968;9.062;2022-08-14T03:01:16;13.90;;;13.00;;
22113;SDS011;11223;49.968;9.062;2022-08-14T03:03:44;14.43;;;13.52;;
22113;SDS011;11223;49.968;9.062;2022-08-14T03:06:13;13.90;;;13.05;;
22113;SDS011;11223;49.968;9.062;2022-08-14T03:08:40;12.98;;;12.27;;
22113;SDS011;11223;49.968;9.062;2022-08-14T03:11:07;14.30;;;13.40;;
22113;SDS011;11223;49.968;9.062;2022-08-14T03:13:37;14.45;;;13.35;;
22113;SDS011;11223;49.968;9.062;2022-08-14T03:16:07;13.50;;;12.70;;
22113;SDS011;11223;49.968;9.062;2022-08-14T03:18:38;15.70;;;14.15;;
22113;SDS011;11223;49.968;9.062;2022-08-14T03:21:06;15.05;;;14.13;;
22113;SDS011;11223;49.968;9.062;2022-08-14T03:23:33;14.27;;;13.35;;
22113;SDS011;11223;49.968;9.062;2022-08-14T03:26:00;13.38;;;12.48;;
22113;SDS011;11223;49.968;9.062;2022-08-14T03:28:27;13.25;;;12.45;;
22113;SDS011;11223;49.968;9.062;2022-08-14T03:30:54;13.20;;;12.40;;
22113;SDS011;11223;49.968;9.062;2022-08-14T03:33:24;12.27;;;11.57;;
22113;SDS011;11223;49.968;9.062;2022-08-14T03:35:51;13.60;;;12.70;;
22113;SDS011;11223;49.968;9.062;2022-08-14T03:38:17;13.57;;;12.80;;
22113;SDS011;11223;49.968;9.062;2022-08-14T03:40:43;13.47;;;12.60;;
22113;SDS011;11223;49.968;9.062;2022-08-14T03:43:11;12.88;;;12.18;;
22113;SDS011;11223;49.968;9.062;2022-08-14T03:45:37;14.15;;;13.10;;
22113;SDS011;11223;49.968;9.062;2022-08-14T03:48:14;14.52;;;13.55;;
22113;SDS011;11223;49.968;9.062;2022-08-14T03:50:45;13.18;;;12.38;;
22113;SDS011;11223;49.968;9.062;2022-08-14T03:53:12;12.63;;;11.93;;
22113;SDS011;11223;49.968;9.062;2022-08-14T03:55:39;13.57;;;12.77;;
22113;SDS011;11223;49.968;9.062;2022-08-14T03:58:05;13.43;;;12.63;;
22113;SDS011;11223;49.968;9.062;2022-08-14T04:00:31;12.57;;;11.75;;
22113;SDS011;11223;49.968;9.062;2022-08-14T04:02:58;13.55;;;12.75;;
22113;SDS011;11223;49.968;9.062;2022-08-14T04:05:23;13.73;;;12.83;;
22113;SDS011;11223;49.968;9.062;2022-08-14T04:07:49;14.70;;;13.85;;
22113;SDS011;11223;49.968;9.062;2022-08-14T04:10:15;14.27;;;13.37;;
22113;SDS011;11223;49.968;9.062;2022-08-14T04:12:41;12.80;;;12.00;;
22113;SDS011;11223;49.968;9.062;2022-08-14T04:15:07;13.83;;;12.90;;
22113;SDS011;11223;49.968;9.062;2022-08-14T04:17:34;13.80;;;12.90;;
22113;SDS011;11223;49.968;9.062;2022-08-14T04:19:59;14.07;;;13.17;;
22113;SDS011;11223;49.968;9.062;2022-08-14T04:22:29;15.07;;;14.20;;
22113;SDS011;11223;49.968;9.062;2022-08-14T04:24:56;13.77;;;12.88;;
22113;SDS011;11223;49.968;9.062;2022-08-14T04:27:23;16.13;;;15.13;;
22113;SDS011;11223;49.968;9.062;2022-08-14T04:29:49;15.20;;;14.30;;
22113;SDS011;11223;49.968;9.062;2022-08-14T04:32:15;15.63;;;14.63;;
22113;SDS011;11223;49.968;9.062;2022-08-14T04:34:41;13.73;;;12.93;;
22113;SDS011;11223;49.968;9.062;2022-08-14T04:37:07;15.67;;;14.67;;
22113;SDS011;11223;49.968;9.062;2022-08-14T04:39:52;15.23;;;14.05;;
22113;SDS011;11223;49.968;9.062;2022-08-14T04:42:37;15.48;;;14.52;;
22113;SDS011;11223;49.968;9.062;2022-08-14T04:45:21;15.18;;;13.95;;
22113;SDS011;11223;49.968;9.062;2022-08-14T04:47:49;15.40;;;14.40;;
22113;SDS011;11223;49.968;9.062;2022-08-14T04:50:33;16.05;;;15.05;;
22113;SDS011;11223;49.968;9.062;2022-08-14T04:52:59;15.73;;;14.60;;
22113;SDS011;11223;49.968;9.062;2022-08-14T04:55:25;16.27;;;15.27;;
22113;SDS011;11223;49.968;9.062;2022-08-14T04:57:51;14.70;;;13.70;;
22113;SDS011;11223;49.968;9.062;2022-08-14T05:00:17;14.13;;;13.23;;
22113;SDS011;11223;49.968;9.062;2022-08-14T05:02:42;15.33;;;14.13;;
22113;SDS011;11223;49.968;9.062;2022-08-14T05:05:08;15.13;;;13.97;;
22113;SDS011;11223;49.968;9.062;2022-08-14T05:07:34;15.70;;;14.60;;
22113;SDS011;11223;49.968;9.062;2022-08-14T05:09:59;15.67;;;14.67;;
22113;SDS011;11223;49.968;9.062;2022-08-14T05:12:25;15.15;;;14.15;;
22113;SDS011;11223;49.968;9.062;2022-08-14T05:14:52;17.38;;;16.20;;
22113;SDS011;11223;49.968;9.062;2022-08-14T05:17:18;17.00;;;15.97;;
22113;SDS011;11223;49.968;9.062;2022-08-14T05:19:49;16.73;;;15.55;;
22113;SDS011;11223;49.968;9.062;2022-08-14T05:22:15;15.02;;;13.82;;
22113;SDS011;11223;49.968;9.062;2022-08-14T05:24:41;14.90;;;14.00;;
22113;SDS011;11223;49.968;9.062;2022-08-14T05:27:06;14.47;;;13.50;;
22113;SDS011;11223;49.968;9.062;2022-08-14T05:29:33;14.63;;;13.65;;
22113;SDS011;11223;49.968;9.062;2022-08-14T05:32:00;15.27;;;14.27;;
22113;SDS011;11223;49.968;9.062;2022-08-14T05:34:31;15.18;;;14.18;;
22113;SDS011;11223;49.968;9.062;2022-08-14T05:36:58;13.90;;;13.07;;
22113;SDS011;11223;49.968;9.062;2022-08-14T05:39:24;13.52;;;12.82;;
22113;SDS011;11223;49.968;9.062;2022-08-14T05:41:50;13.60;;;12.70;;
22113;SDS011;11223;49.968;9.062;2022-08-14T05:44:15;14.27;;;13.37;;
22113;SDS011;11223;49.968;9.062;2022-08-14T05:46:41;14.80;;;13.90;;
22113;SDS011;11223;49.968;9.062;2022-08-14T05:49:06;14.63;;;13.63;;
22113;SDS011;11223;49.968;9.062;2022-08-14T05:51:32;13.87;;;13.00;;
22113;SDS011;11223;49.968;9.062;2022-08-14T05:53:58;13.60;;;12.80;;
22113;SDS011;11223;49.968;9.062;2022-08-14T05:56:24;13.20;;;12.50;;
22113;SDS011;11223;49.968;9.062;2022-08-14T05:58:50;13.60;;;12.80;;
22113;SDS011;11223;49.968;9.062;2022-08-14T06:01:16;13.98;;;13.07;;
22113;SDS011;11223;49.968;9.062;2022-08-14T06:03:42;14.70;;;13.80;;
22113;SDS011;11223;49.968;9.062;2022-08-14T06:06:07;14.70;;;13.77;;
22113;SDS011;11223;49.968;9.062;2022-08-14T06:08:33;14.90;;;14.10;;
22113;SDS011;11223;49.968;9.062;2022-08-14T06:10:59;13.30;;;12.50;;
22113;SDS011;11223;49.968;9.062;2022-08-14T06:13:37;14.48;;;13.68;;
22113;SDS011;11223;49.968;9.062;2022-08-14T06:16:05;14.50;;;13.40;;
22113;SDS011;11223;49.968;9.062;2022-08-14T06:18:31;12.60;;;11.90;;
22113;SDS011;11223;49.968;9.062;2022-08-14T06:20:59;14.40;;;13.60;;
22113;SDS011;11223;49.968;9.062;2022-08-14T06:23:25;14.20;;;13.30;;
22113;SDS011;11223;49.968;9.062;2022-08-14T06:25:51;13.60;;;12.80;;
22113;SDS011;11223;49.968;9.062;2022-08-14T06:28:17;15.10;;;14.10;;
22113;SDS011;11223;49.968;9.062;2022-08-14T06:30:44;13.50;;;12.70;;
22113;SDS011;11223;49.968;9.062;2022-08-14T06:33:10;13.33;;;12.53;;
22113;SDS011;11223;49.968;9.062;2022-08-14T06:35:36;12.73;;;12.03;;
22113;SDS011;11223;49.968;9.062;2022-08-14T06:38:01;13.83;;;13.03;;
22113;SDS011;11223;49.968;9.062;2022-08-14T06:40:28;13.80;;;13.00;;
22113;SDS011;11223;49.968;9.062;2022-08-14T06:42:59;13.32;;;12.43;;
22113;SDS011;11223;49.968;9.062;2022-08-14T06:45:27;13.10;;;12.30;;
22113;SDS011;11223;49.968;9.062;2022-08-14T06:47:53;12.07;;;11.27;;
22113;SDS011;11223;49.968;9.062;2022-08-14T06:50:19;13.10;;;12.30;;
22113;SDS011;11223;49.968;9.062;2022-08-14T06:52:47;11.98;;;11.07;;
22113;SDS011;11223;49.968;9.062;2022-08-14T06:55:13;13.10;;;12.30;;
22113;SDS011;11223;49.968;9.062;2022-08-14T06:57:42;11.80;;;11.00;;
22113;SDS011;11223;49.968;9.062;2022-08-14T07:00:14;13.63;;;12.68;;
22113;SDS011;11223;49.968;9.062;2022-08-14T07:02:40;11.27;;;10.68;;
22113;SDS011;11223;49.968;9.062;2022-08-14T07:05:24;11.90;;;11.13;;
22113;SDS011;11223;49.968;9.062;2022-08-14T07:10:40;11.07;;;10.38;;
22113;SDS011;11223;49.968;9.062;2022-08-14T07:13:07;12.30;;;11.30;;
22113;SDS011;11223;49.968;9.062;2022-08-14T07:15:38;11.77;;;10.98;;
22113;SDS011;11223;49.968;9.062;2022-08-14T07:18:05;12.05;;;11.15;;
22113;SDS011;11223;49.968;9.062;2022-08-14T07:20:31;11.35;;;10.65;;
22113;SDS011;11223;49.968;9.062;2022-08-14T07:22:58;11.10;;;10.30;;
22113;SDS011;11223;49.968;9.062;2022-08-14T07:25:27;10.60;;;10.00;;
22113;SDS011;11223;49.968;9.062;2022-08-14T07:27:53;10.77;;;10.10;;
22113;SDS011;11223;49.968;9.062;2022-08-14T07:30:19;11.05;;;10.43;;
22113;SDS011;11223;49.968;9.062;2022-08-14T07:32:45;10.50;;;9.90;;
22113;SDS011;11223;49.968;9.062;2022-08-14T07:35:11;11.17;;;10.37;;
22113;SDS011;11223;49.968;9.062;2022-08-14T07:37:36;10.80;;;10.10;;
22113;SDS011;11223;49.968;9.062;2022-08-14T07:40:03;10.40;;;9.80;;
22113;SDS011;11223;49.968;9.062;2022-08-14T07:42:29;10.18;;;9.57;;
22113;SDS011;11223;49.968;9.062;2022-08-14T07:44:58;9.70;;;9.10;;
22113;SDS011;11223;49.968;9.062;2022-08-14T07:47:24;10.82;;;10.15;;
22113;SDS011;11223;49.968;9.062;2022-08-14T07:49:57;10.40;;;9.70;;
22113;SDS011;11223;49.968;9.062;2022-08-14T07:52:28;9.82;;;9.18;;
22113;SDS011;11223;49.968;9.062;2022-08-14T07:54:54;9.60;;;9.00;;
22113;SDS011;11223;49.968;9.062;2022-08-14T07:57:21;9.73;;;9.13;;
22113;SDS011;11223;49.968;9.062;2022-08-14T07:59:47;10.07;;;9.38;;
22113;SDS011;11223;49.968;9.062;2022-08-14T08:02:13;9.90;;;9.20;;
22113;SDS011;11223;49.968;9.062;2022-08-14T08:04:42;9.97;;;9.33;;
22113;SDS011;11223;49.968;9.062;2022-08-14T08:07:10;10.03;;;9.43;;
22113;SDS011;11223;49.968;9.062;2022-08-14T08:09:36;10.33;;;9.70;;
22113;SDS011;11223;49.968;9.062;2022-08-14T08:12:07;9.70;;;9.10;;
22113;SDS011;11223;49.968;9.062;2022-08-14T08:14:35;8.97;;;8.27;;
22113;SDS011;11223;49.968;9.062;2022-08-14T08:17:03;10.13;;;9.37;;
22113;SDS011;11223;49.968;9.062;2022-08-14T08:19:30;9.90;;;9.20;;
22113;SDS011;11223;49.968;9.062;2022-08-14T08:21:58;9.93;;;9.20;;
22113;SDS011;11223;49.968;9.062;2022-08-14T08:24:27;10.13;;;9.17;;
22113;SDS011;11223;49.968;9.062;2022-08-14T08:26:53;10.80;;;10.00;;
22113;SDS011;11223;49.968;9.062;2022-08-14T08:29:19;9.40;;;8.80;;
22113;SDS011;11223;49.968;9.062;2022-08-14T08:31:47;8.80;;;8.30;;
22113;SDS011;11223;49.968;9.062;2022-08-14T08:34:16;8.73;;;8.23;;
22113;SDS011;11223;49.968;9.062;2022-08-14T08:36:43;9.37;;;8.67;;
22113;SDS011;11223;49.968;9.062;2022-08-14T08:39:09;8.90;;;8.40;;
22113;SDS011;11223;49.968;9.062;2022-08-14T08:41:39;8.20;;;7.70;;
22113;SDS011;11223;49.968;9.062;2022-08-14T08:44:06;9.00;;;8.50;;
22113;SDS011;11223;49.968;9.062;2022-08-14T08:46:31;8.73;;;8.23;;
22113;SDS011;11223;49.968;9.062;2022-08-14T08:48:57;8.73;;;8.13;;
22113;SDS011;11223;49.968;9.062;2022-08-14T08:51:30;8.70;;;8.20;;
22113;SDS011;11223;49.968;9.062;2022-08-14T08:54:03;9.23;;;8.33;;
22113;SDS011;11223;49.968;9.062;2022-08-14T08:59:21;6.87;;;6.47;;
22113;SDS011;11223;49.968;9.062;2022-08-14T09:01:53;7.73;;;7.23;;
22113;SDS011;11223;49.968;9.062;2022-08-14T09:04:25;8.40;;;7.80;;
22113;SDS011;11223;49.968;9.062;2022-08-14T09:06:55;7.60;;;7.17;;
22113;SDS011;11223;49.968;9.062;2022-08-14T09:09:26;7.23;;;6.83;;
22113;SDS011;11223;49.968;9.062;2022-08-14T09:11:53;7.13;;;6.73;;
22113;SDS011;11223;49.968;9.062;2022-08-14T09:14:24;7.73;;;7.23;;
22113;SDS011;11223;49.968;9.062;2022-08-14T09:16:51;7.50;;;6.90;;
22113;SDS011;11223;49.968;9.062;2022-08-14T09:19:18;7.70;;;7.00;;
22113;SDS011;11223;49.968;9.062;2022-08-14T09:21:45;6.97;;;6.57;;
22113;SDS011;11223;49.968;9.062;2022-08-14T09:24:11;7.60;;;7.20;;
22113;SDS011;11223;49.968;9.062;2022-08-14T09:26:37;6.93;;;6.23;;
22113;SDS011;11223;49.968;9.062;2022-08-14T09:29:05;7.00;;;6.60;;
22113;SDS011;11223;49.968;9.062;2022-08-14T09:31:32;6.60;;;6.10;;
22113;SDS011;11223;49.968;9.062;2022-08-14T09:34:05;6.70;;;6.30;;
22113;SDS011;11223;49.968;9.062;2022-08-14T09:36:42;6.20;;;5.80;;
22113;SDS011;11223;49.968;9.062;2022-08-14T09:39:26;6.80;;;6.30;;
22113;SDS011;11223;49.968;9.062;2022-08-14T09:42:27;5.83;;;5.53;;
22113;SDS011;11223;49.968;9.062;2022-08-14T09:45:45;5.87;;;5.57;;
22113;SDS011;11223;49.968;9.062;2022-08-14T09:48:13;5.93;;;5.53;;
22113;SDS011;11223;49.968;9.062;2022-08-14T09:50:48;6.10;;;5.60;;
22113;SDS011;11223;49.968;9.062;2022-08-14T09:53:16;10.20;;;6.13;;
22113;SDS011;11223;49.968;9.062;2022-08-14T09:55:58;5.90;;;5.50;;
22113;SDS011;11223;49.968;9.062;2022-08-14T09:58:34;5.97;;;5.60;;
22113;SDS011;11223;49.968;9.062;2022-08-14T10:01:11;6.40;;;5.90;;
22113;SDS011;11223;49.968;9.062;2022-08-14T10:03:48;5.80;;;5.27;;
22113;SDS011;11223;49.968;9.062;2022-08-14T10:06:27;6.47;;;5.87;;
22113;SDS011;11223;49.968;9.062;2022-08-14T10:08:58;5.90;;;5.60;;
22113;SDS011;11223;49.968;9.062;2022-08-14T10:11:28;6.10;;;5.70;;
22113;SDS011;11223;49.968;9.062;2022-08-14T10:14:09;5.13;;;4.83;;
22113;SDS011;11223;49.968;9.062;2022-08-14T10:16:40;6.00;;;5.50;;
22113;SDS011;11223;49.968;9.062;2022-08-14T10:19:12;6.63;;;6.23;;
22113;SDS011;11223;49.968;9.062;2022-08-14T10:21:41;7.10;;;6.40;;
22113;SDS011;11223;49.968;9.062;2022-08-14T10:24:21;5.63;;;5.23;;
22113;SDS011;11223;49.968;9.062;2022-08-14T10:26:53;6.77;;;5.63;;
22113;SDS011;11223;49.968;9.062;2022-08-14T10:29:33;6.07;;;5.60;;
22113;SDS011;11223;49.968;9.062;2022-08-14T10:32:02;5.63;;;5.13;;
22113;SDS011;11223;49.968;9.062;2022-08-14T10:34:35;6.00;;;5.60;;
22113;SDS011;11223;49.968;9.062;2022-08-14T10:37:07;5.37;;;4.97;;
22113;SDS011;11223;49.968;9.062;2022-08-14T10:39:37;6.60;;;4.73;;
22113;SDS011;11223;49.968;9.062;2022-08-14T10:42:05;5.13;;;4.83;;
22113;SDS011;11223;49.968;9.062;2022-08-14T10:44:34;4.87;;;4.57;;
22113;SDS011;11223;49.968;9.062;2022-08-14T10:47:02;4.73;;;4.33;;
22113;SDS011;11223;49.968;9.062;2022-08-14T10:49:35;4.90;;;4.60;;
22113;SDS011;11223;49.968;9.062;2022-08-14T10:52:03;4.90;;;4.50;;
22113;SDS011;11223;49.968;9.062;2022-08-14T10:54:42;5.30;;;4.93;;
22113;SDS011;11223;49.968;9.062;2022-08-14T10:57:13;3.90;;;3.70;;
22113;SDS011;11223;49.968;9.062;2022-08-14T11:02:38;5.40;;;5.00;;
22113;SDS011;11223;49.968;9.062;2022-08-14T11:07:37;5.27;;;4.97;;
22113;SDS011;11223;49.968;9.062;2022-08-14T11:10:05;5.60;;;5.20;;
22113;SDS011;11223;49.968;9.062;2022-08-14T11:12:40;4.10;;;3.90;;
22113;SDS011;11223;49.968;9.062;2022-08-14T11:15:16;5.00;;;4.70;;
22113;SDS011;11223;49.968;9.062;2022-08-14T11:17:44;5.30;;;4.90;;
22113;SDS011;11223;49.968;9.062;2022-08-14T11:20:13;6.53;;;4.50;;
22113;SDS011;11223;49.968;9.062;2022-08-14T11:22:44;5.43;;;3.70;;
22113;SDS011;11223;49.968;9.062;2022-08-14T11:25:13;5.00;;;4.60;;
22113;SDS011;11223;49.968;9.062;2022-08-14T11:27:40;5.60;;;4.03;;
22113;SDS011;11223;49.968;9.062;2022-08-14T11:30:08;4.20;;;4.00;;
22113;SDS011;11223;49.968;9.062;2022-08-14T11:32:40;4.70;;;4.40;;
22113;SDS011;11223;49.968;9.062;2022-08-14T11:35:12;4.87;;;4.57;;
22113;SDS011;11223;49.968;9.062;2022-08-14T11:37:53;4.60;;;4.30;;
22113;SDS011;11223;49.968;9.062;2022-08-14T11:40:27;5.00;;;4.47;;
22113;SDS011;11223;49.968;9.062;2022-08-14T11:42:55;4.40;;;4.20;;
22113;SDS011;11223;49.968;9.062;2022-08-14T11:45:23;4.90;;;4.57;;
22113;SDS011;11223;49.968;9.062;2022-08-14T11:47:50;5.53;;;5.10;;
22113;SDS011;11223;49.968;9.062;2022-08-14T11:50:19;5.30;;;4.57;;
22113;SDS011;11223;49.968;9.062;2022-08-14T11:52:50;5.10;;;4.80;;
22113;SDS011;11223;49.968;9.062;2022-08-14T11:55:20;5.40;;;5.10;;
22113;SDS011;11223;49.968;9.062;2022-08-14T11:57:46;4.63;;;4.43;;
22113;SDS011;11223;49.968;9.062;2022-08-14T12:00:13;5.00;;;4.70;;
22113;SDS011;11223;49.968;9.062;2022-08-14T12:05:37;5.37;;;4.97;;
22113;SDS011;11223;49.968;9.062;2022-08-14T12:08:06;5.20;;;4.80;;
22113;SDS011;11223;49.968;9.062;2022-08-14T12:10:33;5.50;;;5.13;;
22113;SDS011;11223;49.968;9.062;2022-08-14T12:13:12;5.83;;;5.33;;
22113;SDS011;11223;49.968;9.062;2022-08-14T12:15:39;5.40;;;5.00;;
22113;SDS011;11223;49.968;9.062;2022-08-14T12:18:06;5.53;;;5.13;;
22113;SDS011;11223;49.968;9.062;2022-08-14T12:20:34;5.47;;;5.07;;
22113;SDS011;11223;49.968;9.062;2022-08-14T12:23:02;5.73;;;5.30;;
22113;SDS011;11223;49.968;9.062;2022-08-14T12:25:29;5.40;;;5.10;;
22113;SDS011;11223;49.968;9.062;2022-08-14T12:27:56;5.23;;;4.93;;
22113;SDS011;11223;49.968;9.062;2022-08-14T12:30:25;5.00;;;4.70;;
22113;SDS011;11223;49.968;9.062;2022-08-14T12:32:59;5.87;;;5.57;;
22113;SDS011;11223;49.968;9.062;2022-08-14T12:35:40;5.10;;;4.80;;
22113;SDS011;11223;49.968;9.062;2022-08-14T12:38:11;6.37;;;6.07;;
22113;SDS011;11223;49.968;9.062;2022-08-14T12:40:46;5.10;;;4.70;;
22113;SDS011;11223;49.968;9.062;2022-08-14T12:43:14;5.20;;;4.90;;
22113;SDS011;11223;49.968;9.062;2022-08-14T12:45:44;5.30;;;5.00;;
22113;SDS011;11223;49.968;9.062;2022-08-14T12:48:14;5.43;;;5.03;;
22113;SDS011;11223;49.968;9.062;2022-08-14T12:50:42;5.60;;;5.17;;
22113;SDS011;11223;49.968;9.062;2022-08-14T12:53:08;4.87;;;4.57;;
22113;SDS011;11223;49.968;9.062;2022-08-14T12:55:35;6.20;;;5.73;;
22113;SDS011;11223;49.968;9.062;2022-08-14T12:58:03;5.80;;;5.40;;
22113;SDS011;11223;49.968;9.062;2022-08-14T13:00:31;5.57;;;5.23;;
22113;SDS011;11223;49.968;9.062;2022-08-14T13:02:58;6.33;;;5.93;;
22113;SDS011;11223;49.968;9.062;2022-08-14T13:05:26;5.87;;;5.37;;
22113;SDS011;11223;49.968;9.062;2022-08-14T13:07:54;6.13;;;5.80;;
22113;SDS011;11223;49.968;9.062;2022-08-14T13:10:21;8.30;;;5.57;;
22113;SDS011;11223;49.968;9.062;2022-08-14T13:12:48;5.13;;;4.83;;
22113;SDS011;11223;49.968;9.062;2022-08-14T13:15:15;5.72;;;5.32;;
22113;SDS011;11223;49.968;9.062;2022-08-14T13:20:10;5.60;;;5.20;;
22113;SDS011;11223;49.968;9.062;2022-08-14T13:22:38;5.67;;;5.00;;
22113;SDS011;11223;49.968;9.062;2022-08-14T13:25:08;5.13;;;4.73;;
22113;SDS011;11223;49.968;9.062;2022-08-14T13:27:36;5.70;;;5.20;;
22113;SDS011;11223;49.968;9.062;2022-08-14T13:30:03;5.27;;;4.83;;
22113;SDS011;11223;49.968;9.062;2022-08-14T13:32:34;5.30;;;5.00;;
22113;SDS011;11223;49.968;9.062;2022-08-14T13:35:03;4.33;;;4.03;;
22113;SDS011;11223;49.968;9.062;2022-08-14T13:37:29;4.93;;;4.63;;
22113;SDS011;11223;49.968;9.062;2022-08-14T13:39:55;5.30;;;4.63;;
22113;SDS011;11223;49.968;9.062;2022-08-14T13:42:21;5.20;;;4.90;;
22113;SDS011;11223;49.968;9.062;2022-08-14T13:44:48;5.83;;;5.33;;
22113;SDS011;11223;49.968;9.062;2022-08-14T13:47:15;5.70;;;5.30;;
22113;SDS011;11223;49.968;9.062;2022-08-14T13:49:44;4.90;;;4.70;;
22113;SDS011;11223;49.968;9.062;2022-08-14T13:52:15;6.17;;;5.63;;
22113;SDS011;11223;49.968;9.062;2022-08-14T13:54:47;4.73;;;4.43;;
22113;SDS011;11223;49.968;9.062;2022-08-14T13:57:14;4.40;;;4.20;;
22113;SDS011;11223;49.968;9.062;2022-08-14T13:59:44;5.53;;;5.03;;
22113;SDS011;11223;49.968;9.062;2022-08-14T14:02:11;4.77;;;4.47;;
22113;SDS011;11223;49.968;9.062;2022-08-14T14:04:41;5.50;;;5.20;;
22113;SDS011;11223;49.968;9.062;2022-08-14T14:07:09;4.93;;;4.63;;
22113;SDS011;11223;49.968;9.062;2022-08-14T14:09:38;5.30;;;5.00;;
22113;SDS011;11223;49.968;9.062;2022-08-14T14:12:05;4.63;;;4.30;;
22113;SDS011;11223;49.968;9.062;2022-08-14T14:14:32;4.23;;;4.03;;
22113;SDS011;11223;49.968;9.062;2022-08-14T14:17:08;4.43;;;4.13;;
22113;SDS011;11223;49.968;9.062;2022-08-14T14:19:37;5.40;;;5.10;;
22113;SDS011;11223;49.968;9.062;2022-08-14T14:22:07;4.33;;;4.13;;
22113;SDS011;11223;49.968;9.062;2022-08-14T14:24:33;4.40;;;4.20;;
22113;SDS011;11223;49.968;9.062;2022-08-14T14:27:00;4.77;;;4.47;;
22113;SDS011;11223;49.968;9.062;2022-08-14T14:29:29;5.07;;;4.77;;
22113;SDS011;11223;49.968;9.062;2022-08-14T14:31:57;4.30;;;4.00;;
22113;SDS011;11223;49.968;9.062;2022-08-14T14:34:24;3.93;;;3.73;;
22113;SDS011;11223;49.968;9.062;2022-08-14T14:36:51;4.70;;;4.40;;
22113;SDS011;11223;49.968;9.062;2022-08-14T14:39:24;5.17;;;4.30;;
22113;SDS011;11223;49.968;9.062;2022-08-14T14:41:52;3.97;;;3.67;;
22113;SDS011;11223;49.968;9.062;2022-08-14T14:44:24;4.63;;;4.20;;
22113;SDS011;11223;49.968;9.062;2022-08-14T14:46:56;4.60;;;4.30;;
22113;SDS011;11223;49.968;9.062;2022-08-14T14:49:22;4.17;;;3.93;;
22113;SDS011;11223;49.968;9.062;2022-08-14T14:51:48;5.53;;;4.20;;
22113;SDS011;11223;49.968;9.062;2022-08-14T14:54:15;4.47;;;4.17;;
22113;SDS011;11223;49.968;9.062;2022-08-14T14:56:43;5.00;;;4.77;;
22113;SDS011;11223;49.968;9.062;2022-08-14T14:59:10;4.37;;;4.07;;
22113;SDS011;11223;49.968;9.062;2022-08-14T15:01:38;4.90;;;4.50;;
22113;SDS011;11223;49.968;9.062;2022-08-14T15:04:04;4.33;;;4.00;;